createdAt,value
2023-11-23T00:00:55.840Z,41.83
2023-11-23T00:03:28.975Z,39.50
2023-11-23T00:06:03.914Z,37.63
2023-11-23T00:08:36.983Z,37.38
2023-11-23T00:11:11.021Z,35.05
2023-11-23T00:13:44.408Z,36.20
2023-11-23T00:16:17.573Z,38.90
2023-11-23T00:18:50.718Z,34.17
2023-11-23T00:21:25.202Z,39.67
2023-11-23T00:23:58.291Z,37.45
2023-11-23T00:26:32.792Z,35.00
2023-11-23T00:29:07.600Z,39.47
2023-11-23T00:31:40.633Z,40.40
2023-11-23T00:34:13.780Z,39.42
2023-11-23T00:36:48.226Z,38.45
2023-11-23T00:39:21.670Z,34.40
2023-11-23T00:41:54.763Z,34.25
2023-11-23T00:44:33.835Z,35.38
2023-11-23T00:47:13.043Z,30.38
2023-11-23T00:49:55.168Z,30.73
2023-11-23T00:52:36.888Z,33.20
2023-11-23T00:55:15.551Z,32.95
2023-11-23T00:57:56.735Z,32.38
2023-11-23T01:00:51.200Z,28.73
2023-11-23T01:03:26.072Z,34.67
2023-11-23T01:06:01.571Z,28.42
2023-11-23T01:08:40.421Z,30.02
2023-11-23T01:11:14.783Z,27.05
2023-11-23T01:13:56.291Z,29.40
2023-11-23T01:16:31.198Z,28.80
2023-11-23T01:19:11.066Z,30.70
2023-11-23T01:21:48.363Z,29.50
2023-11-23T01:24:25.154Z,27.20
2023-11-23T01:26:58.564Z,26.13
2023-11-23T01:29:35.501Z,23.63
2023-11-23T01:32:10.676Z,25.63
2023-11-23T01:34:43.850Z,28.23
2023-11-23T01:37:24.542Z,23.30
2023-11-23T01:40:05.551Z,23.65
2023-11-23T01:43:00.425Z,23.23
2023-11-23T01:45:41.535Z,23.80
2023-11-23T01:48:17.774Z,27.33
2023-11-23T01:50:52.491Z,23.38
2023-11-23T01:53:53.620Z,22.85
2023-11-23T01:56:52.086Z,22.88
2023-11-23T01:59:35.066Z,21.10
2023-11-23T02:02:10.683Z,23.55
2023-11-23T02:04:49.980Z,22.67
2023-11-23T02:07:30.895Z,22.60
2023-11-23T02:10:05.575Z,21.83
2023-11-23T02:12:49.917Z,22.75
2023-11-23T02:15:26.149Z,21.60
2023-11-23T02:18:14.182Z,23.70
2023-11-23T02:21:00.449Z,23.35
2023-11-23T02:23:58.728Z,22.60
2023-11-23T02:26:38.728Z,19.50
2023-11-23T02:29:13.745Z,17.73
2023-11-23T02:32:20.635Z,21.80
2023-11-23T02:34:54.154Z,22.88
2023-11-23T02:37:54.174Z,20.33
2023-11-23T02:40:29.546Z,23.15
2023-11-23T02:43:16.270Z,17.88
2023-11-23T02:45:54.660Z,19.45
2023-11-23T02:48:39.489Z,22.13
2023-11-23T02:51:19.756Z,17.88
2023-11-23T02:54:00.111Z,18.23
2023-11-23T02:56:33.709Z,22.40
2023-11-23T03:01:46.343Z,17.80
2023-11-23T03:04:24.029Z,19.02
2023-11-23T03:06:59.461Z,20.13
2023-11-23T03:09:42.950Z,23.02
2023-11-23T03:12:19.263Z,18.92
2023-11-23T03:15:01.506Z,18.58
2023-11-23T03:17:43.348Z,17.08
2023-11-23T03:20:35.422Z,16.67
2023-11-23T03:23:15.882Z,17.85
2023-11-23T03:25:57.457Z,16.00
2023-11-23T03:28:46.109Z,16.20
2023-11-23T03:31:35.638Z,17.95
2023-11-23T03:34:08.886Z,17.98
2023-11-23T03:36:52.320Z,15.82
2023-11-23T03:40:08.937Z,16.77
2023-11-23T03:42:44.657Z,16.77
2023-11-23T03:45:19.893Z,15.85
2023-11-23T03:47:57.796Z,14.77
2023-11-23T03:50:34.084Z,14.45
2023-11-23T03:53:17.314Z,16.83
2023-11-23T03:55:58.112Z,15.30
2023-11-23T03:58:37.120Z,15.60
2023-11-23T04:01:17.895Z,16.33
2023-11-23T04:03:58.407Z,14.57
2023-11-23T04:06:31.828Z,15.15
2023-11-23T04:09:09.467Z,15.85
2023-11-23T04:11:55.688Z,16.42
2023-11-23T04:14:32.280Z,15.68
2023-11-23T04:17:11.953Z,14.23
2023-11-23T04:19:59.567Z,14.07
2023-11-23T04:22:46.789Z,13.65
2023-11-23T04:25:22.066Z,12.90
2023-11-23T04:28:01.259Z,17.27
2023-11-23T04:30:40.675Z,14.32
2023-11-23T04:33:14.394Z,14.43
2023-11-23T04:35:52.221Z,12.32
2023-11-23T04:38:36.745Z,12.23
2023-11-23T04:44:06.701Z,13.15
2023-11-23T04:46:42.674Z,12.48
2023-11-23T04:49:18.511Z,11.65
2023-11-23T04:52:10.193Z,12.98
2023-11-23T04:55:09.350Z,13.45
2023-11-23T04:57:43.089Z,16.98
2023-11-23T05:00:17.171Z,14.30
2023-11-23T05:02:50.330Z,12.82
2023-11-23T05:05:23.449Z,13.93
2023-11-23T05:07:57.918Z,15.27
2023-11-23T05:10:30.991Z,18.77
2023-11-23T05:13:05.043Z,14.07
2023-11-23T05:15:38.107Z,16.55
2023-11-23T05:18:11.287Z,12.45
2023-11-23T05:20:44.500Z,15.38
2023-11-23T05:23:18.930Z,9.82
2023-11-23T05:25:52.073Z,17.30
2023-11-23T05:28:25.383Z,15.13
2023-11-23T05:30:58.654Z,11.15
2023-11-23T05:33:31.767Z,13.50
2023-11-23T05:36:05.310Z,12.20
2023-11-23T05:38:39.835Z,12.90
2023-11-23T05:41:12.999Z,13.00
2023-11-23T05:43:46.955Z,15.50
2023-11-23T05:46:20.149Z,11.98
2023-11-23T05:48:53.352Z,11.98
2023-11-23T05:51:26.455Z,11.40
2023-11-23T05:54:00.979Z,17.20
2023-11-23T05:56:35.009Z,10.48
2023-11-23T05:59:08.354Z,13.00
2023-11-23T06:01:41.472Z,10.77
2023-11-23T06:04:14.632Z,12.80
2023-11-23T06:06:47.816Z,12.65
2023-11-23T06:09:22.282Z,11.20
2023-11-23T06:11:55.407Z,10.05
2023-11-23T06:14:28.470Z,11.38
2023-11-23T06:17:01.614Z,15.40
2023-11-23T06:19:34.760Z,11.45
2023-11-23T06:22:07.915Z,15.88
2023-11-23T06:24:42.333Z,10.63
2023-11-23T06:27:15.495Z,14.68
2023-11-23T06:29:48.605Z,12.32
2023-11-23T06:32:21.714Z,17.80
2023-11-23T06:34:54.790Z,19.40
2023-11-23T06:37:27.859Z,27.20
2023-11-23T06:40:02.338Z,30.92
2023-11-23T06:42:37.265Z,34.50
2023-11-23T06:45:14.776Z,36.08
2023-11-23T06:47:48.189Z,28.60
2023-11-23T06:50:21.838Z,68.25
2023-11-23T06:52:54.929Z,69.85
2023-11-23T06:55:29.433Z,106.80
2023-11-23T06:58:02.743Z,116.32
2023-11-23T07:00:35.869Z,113.85
2023-11-23T07:03:10.924Z,105.80
2023-11-23T07:05:43.979Z,107.05
2023-11-23T07:08:17.095Z,101.47
2023-11-23T07:10:51.512Z,104.70
2023-11-23T07:13:24.606Z,97.50
2023-11-23T07:16:00.208Z,87.68
2023-11-23T07:18:33.787Z,80.25
2023-11-23T07:21:08.212Z,76.47
2023-11-23T07:23:41.489Z,70.85
2023-11-23T07:26:16.182Z,80.10
2023-11-23T07:28:49.556Z,75.70
2023-11-23T07:31:23.399Z,69.95
2023-11-23T07:33:56.735Z,71.60
2023-11-23T07:36:31.297Z,66.72
2023-11-23T07:39:04.748Z,67.75
2023-11-23T07:41:39.197Z,67.28
2023-11-23T07:44:12.262Z,64.93
2023-11-23T07:46:48.076Z,64.43
2023-11-23T07:49:21.151Z,62.58
2023-11-23T07:51:56.275Z,69.63
2023-11-23T07:54:29.968Z,61.00
2023-11-23T07:59:37.998Z,56.67
2023-11-23T08:02:11.211Z,60.55
2023-11-23T08:04:45.416Z,58.55
2023-11-23T08:07:18.534Z,56.85
2023-11-23T08:09:52.671Z,61.75
2023-11-23T08:12:27.693Z,53.53
2023-11-23T08:15:01.239Z,50.53
2023-11-23T08:17:34.411Z,45.85
2023-11-23T08:20:08.934Z,29.13
2023-11-23T08:22:42.054Z,22.95
2023-11-23T08:25:15.119Z,20.85
2023-11-23T08:27:49.572Z,19.20
2023-11-23T08:30:23.516Z,18.15
2023-11-23T08:33:00.200Z,14.82
2023-11-23T08:35:33.438Z,20.75
2023-11-23T08:38:06.522Z,17.15
2023-11-23T08:40:40.190Z,17.58
2023-11-23T08:43:14.853Z,15.88
2023-11-23T08:45:48.398Z,15.07
2023-11-23T08:48:23.708Z,14.88
2023-11-23T08:50:57.127Z,17.90
2023-11-23T08:53:30.388Z,18.58
2023-11-23T08:56:03.511Z,15.77
2023-11-23T08:58:38.121Z,28.05
2023-11-23T09:01:11.661Z,27.48
2023-11-23T09:03:45.046Z,42.30
2023-11-23T09:06:19.838Z,63.28
2023-11-23T09:08:53.233Z,57.90
2023-11-23T09:11:27.205Z,62.67
2023-11-23T09:14:03.644Z,51.97
2023-11-23T09:16:36.805Z,53.72
2023-11-23T09:19:10.258Z,56.65
2023-11-23T09:21:47.444Z,51.20
2023-11-23T09:24:20.872Z,48.55
2023-11-23T09:26:54.130Z,54.55
2023-11-23T09:29:28.627Z,46.85
2023-11-23T09:32:01.754Z,51.05
2023-11-23T09:34:34.979Z,45.38
2023-11-23T09:37:08.045Z,52.95
2023-11-23T09:39:41.202Z,41.97
2023-11-23T09:42:17.676Z,40.80
2023-11-23T09:44:57.583Z,41.08
2023-11-23T09:47:33.020Z,35.92
2023-11-23T09:50:07.764Z,38.25
2023-11-23T09:52:43.086Z,37.50
2023-11-23T09:55:17.669Z,34.25
2023-11-23T09:57:51.662Z,40.30
2023-11-23T10:00:26.281Z,35.70
2023-11-23T10:02:59.803Z,31.92
2023-11-23T10:05:34.374Z,34.97
2023-11-23T10:08:07.445Z,31.67
2023-11-23T10:10:40.483Z,34.97
2023-11-23T10:13:13.548Z,32.60
2023-11-23T10:15:49.466Z,29.85
2023-11-23T10:18:22.680Z,34.92
2023-11-23T10:20:57.723Z,25.77
2023-11-23T10:23:30.987Z,23.45
2023-11-23T10:26:04.278Z,24.77
2023-11-23T10:28:39.569Z,21.88
2023-11-23T10:31:14.317Z,25.75
2023-11-23T10:33:47.761Z,22.95
2023-11-23T10:36:24.537Z,20.27
2023-11-23T10:38:58.422Z,23.85
2023-11-23T10:44:05.536Z,23.65
2023-11-23T10:46:40.903Z,22.65
2023-11-23T10:49:15.327Z,21.80
2023-11-23T10:51:48.883Z,17.88
2023-11-23T10:54:22.087Z,20.55
2023-11-23T10:56:58.164Z,25.67
2023-11-23T10:59:31.880Z,17.95
2023-11-23T11:02:08.461Z,17.95
2023-11-23T11:04:42.897Z,14.63
2023-11-23T11:07:17.027Z,18.45
2023-11-23T11:10:00.343Z,21.38
2023-11-23T11:12:39.000Z,18.92
2023-11-23T11:15:20.205Z,15.98
2023-11-23T11:18:07.785Z,17.70
2023-11-23T11:20:42.294Z,16.40
2023-11-23T11:23:15.434Z,18.92
2023-11-23T11:25:48.502Z,14.35
2023-11-23T11:28:21.964Z,18.25
2023-11-23T11:31:06.109Z,18.05
2023-11-23T11:36:14.094Z,11.95
2023-11-23T11:41:31.096Z,17.30
2023-11-23T11:44:05.230Z,14.85
2023-11-23T11:46:39.953Z,14.23
2023-11-23T11:49:14.409Z,13.50
2023-11-23T11:51:47.778Z,14.93
2023-11-23T11:54:22.984Z,13.10
2023-11-23T11:56:56.201Z,17.45
2023-11-23T11:59:31.298Z,17.80
2023-11-23T12:02:06.744Z,15.38
2023-11-23T12:04:42.527Z,14.52
2023-11-23T12:07:16.518Z,14.73
2023-11-23T12:09:55.517Z,12.88
2023-11-23T12:12:28.708Z,15.18
2023-11-23T12:15:01.958Z,20.88
2023-11-23T12:17:35.550Z,12.38
2023-11-23T12:20:11.645Z,16.05
2023-11-23T12:22:45.380Z,12.98
2023-11-23T12:30:27.085Z,12.98
2023-11-23T12:33:00.255Z,15.55
2023-11-23T12:35:34.989Z,9.07
2023-11-23T12:38:08.855Z,11.48
2023-11-23T12:40:42.201Z,11.63
2023-11-23T12:43:16.061Z,23.25
2023-11-23T12:45:49.212Z,23.33
2023-11-23T12:48:22.394Z,28.25
2023-11-23T12:50:57.680Z,21.20
2023-11-23T12:53:31.006Z,24.55
2023-11-23T12:56:04.255Z,20.40
2023-11-23T12:58:39.072Z,19.35
2023-11-23T13:01:13.497Z,18.40
2023-11-23T13:03:46.855Z,19.67
2023-11-23T13:06:21.475Z,17.25
2023-11-23T13:08:54.596Z,20.95
2023-11-23T13:11:27.741Z,20.23
2023-11-23T13:14:00.809Z,17.20
2023-11-23T13:16:33.921Z,15.70
2023-11-23T13:19:17.086Z,16.52
2023-11-23T13:22:02.272Z,18.17
2023-11-23T13:24:37.819Z,33.35
2023-11-23T13:27:13.467Z,16.52
2023-11-23T13:29:46.643Z,15.35
2023-11-23T13:32:20.588Z,15.48
2023-11-23T13:34:55.299Z,15.50
2023-11-23T13:37:29.958Z,15.18
2023-11-23T13:40:07.756Z,16.33
2023-11-23T13:42:42.350Z,20.08
2023-11-23T13:45:17.638Z,16.35
2023-11-23T13:47:52.385Z,15.65
2023-11-23T13:50:26.891Z,17.35
2023-11-23T13:53:02.330Z,20.77
2023-11-23T13:55:36.934Z,21.60
2023-11-23T13:58:10.004Z,25.33
2023-11-23T14:00:44.401Z,14.07
2023-11-23T14:03:18.007Z,16.50
2023-11-23T14:05:51.187Z,15.23
2023-11-23T14:08:25.598Z,13.25
2023-11-23T14:10:58.758Z,14.75
2023-11-23T14:13:31.976Z,11.40
2023-11-23T14:16:07.413Z,16.23
2023-11-23T14:18:42.927Z,12.18
2023-11-23T14:21:16.153Z,13.90
2023-11-23T14:23:51.203Z,15.32
2023-11-23T14:26:24.308Z,18.73
2023-11-23T14:28:57.403Z,11.68
2023-11-23T14:31:33.795Z,11.75
2023-11-23T14:34:07.264Z,11.73
2023-11-23T14:36:42.216Z,9.18
2023-11-23T14:39:18.557Z,10.82
2023-11-23T14:41:51.788Z,8.43
2023-11-23T14:44:25.220Z,14.77
2023-11-23T14:46:58.454Z,9.30
2023-11-23T14:49:31.861Z,10.13
2023-11-23T14:52:05.263Z,12.30
2023-11-23T14:54:40.084Z,10.10
2023-11-23T14:57:13.231Z,11.25
2023-11-23T14:59:46.416Z,12.75
2023-11-23T15:02:19.752Z,11.88
2023-11-23T15:04:52.899Z,13.02
2023-11-23T15:07:26.387Z,9.85
2023-11-23T15:10:00.778Z,9.00
2023-11-23T15:12:33.982Z,8.95
2023-11-23T15:15:08.631Z,17.30
2023-11-23T15:17:42.173Z,11.10
2023-11-23T15:20:15.474Z,9.15
2023-11-23T15:22:48.854Z,9.98
2023-11-23T15:25:23.312Z,7.88
2023-11-23T15:27:56.645Z,10.40
2023-11-23T15:30:30.163Z,10.15
2023-11-23T15:33:03.899Z,8.68
2023-11-23T15:38:12.096Z,7.95
2023-11-23T15:40:46.591Z,9.05
2023-11-23T15:43:20.063Z,9.02
2023-11-23T15:45:53.316Z,8.77
2023-11-23T15:48:26.419Z,6.45
2023-11-23T15:51:00.224Z,9.07
2023-11-23T15:56:09.009Z,12.30
2023-11-23T15:58:42.112Z,7.00
2023-11-23T16:01:15.222Z,6.78
2023-11-23T16:03:48.548Z,8.90
2023-11-23T16:06:21.876Z,5.93
2023-11-23T16:08:58.435Z,7.15
2023-11-23T16:11:33.082Z,7.90
2023-11-23T16:14:08.181Z,6.13
2023-11-23T16:16:42.214Z,6.22
2023-11-23T16:19:15.351Z,8.60
2023-11-23T16:21:48.435Z,6.95
2023-11-23T16:24:21.963Z,6.43
2023-11-23T16:26:56.415Z,4.63
2023-11-23T16:29:29.540Z,8.38
2023-11-23T16:32:02.631Z,5.80
2023-11-23T16:34:35.821Z,5.85
2023-11-23T16:37:11.406Z,6.00
2023-11-23T16:39:45.268Z,7.50
2023-11-23T16:42:19.785Z,4.88
2023-11-23T16:44:52.904Z,5.65
2023-11-23T16:47:26.002Z,8.50
2023-11-23T16:50:01.102Z,6.45
2023-11-23T16:52:34.975Z,5.82
2023-11-23T16:55:09.406Z,5.90
2023-11-23T16:57:44.109Z,5.85
2023-11-23T17:00:18.823Z,5.82
2023-11-23T17:02:52.040Z,6.47
2023-11-23T17:05:25.152Z,6.22
2023-11-23T17:07:58.456Z,5.90
2023-11-23T17:10:31.530Z,5.20
2023-11-23T17:13:07.369Z,6.22
2023-11-23T17:15:40.627Z,4.85
2023-11-23T17:18:14.442Z,5.05
2023-11-23T17:23:20.832Z,4.45
2023-11-23T17:25:53.923Z,5.68
2023-11-23T17:28:28.381Z,4.95
2023-11-23T17:31:03.628Z,4.53
2023-11-23T17:33:38.082Z,5.22
2023-11-23T17:36:11.402Z,5.80
2023-11-23T17:38:45.699Z,4.60
2023-11-23T17:41:18.935Z,5.05
2023-11-23T17:43:53.420Z,5.57
2023-11-23T17:46:26.953Z,6.10
2023-11-23T17:49:00.097Z,4.68
2023-11-23T17:51:33.595Z,5.13
2023-11-23T17:54:07.425Z,5.05
2023-11-23T17:59:26.172Z,9.05
2023-11-23T18:02:08.038Z,9.90
2023-11-23T18:04:41.135Z,6.20
2023-11-23T18:07:14.233Z,9.07
2023-11-23T18:09:47.816Z,8.93
2023-11-23T18:12:21.332Z,6.90
2023-11-23T18:14:55.818Z,21.90
2023-11-23T18:17:28.978Z,6.80
2023-11-23T18:20:02.099Z,9.50
2023-11-23T18:22:35.279Z,9.80
2023-11-23T18:25:09.054Z,6.30
2023-11-23T18:27:42.498Z,8.90
2023-11-23T18:30:17.636Z,6.55
2023-11-23T18:32:50.735Z,8.75
2023-11-23T18:35:24.689Z,10.43
2023-11-23T18:37:57.806Z,7.13
2023-11-23T18:40:31.392Z,5.45
2023-11-23T18:43:05.099Z,13.43
2023-11-23T18:48:16.034Z,11.40
2023-11-23T18:50:49.514Z,10.90
2023-11-23T18:53:22.709Z,16.27
2023-11-23T18:55:56.303Z,7.82
2023-11-23T19:01:04.345Z,10.85
2023-11-23T19:03:37.959Z,10.45
2023-11-23T19:06:11.092Z,9.05
2023-11-23T19:08:44.217Z,7.68
2023-11-23T19:11:17.271Z,10.02
2023-11-23T19:13:50.607Z,6.50
2023-11-23T19:19:01.091Z,8.40
2023-11-23T19:21:35.691Z,12.75
2023-11-23T19:24:10.303Z,12.52
2023-11-23T19:26:44.076Z,9.40
2023-11-23T19:29:17.701Z,11.05
2023-11-23T19:31:53.281Z,11.93
2023-11-23T19:34:27.350Z,14.68
2023-11-23T19:37:01.283Z,10.38
2023-11-23T19:39:35.135Z,15.13
2023-11-23T19:42:09.765Z,9.00
2023-11-23T19:44:43.549Z,7.60
2023-11-23T19:49:52.001Z,10.73
2023-11-23T19:52:29.190Z,8.25
2023-11-23T19:55:03.933Z,6.13
2023-11-23T19:57:37.671Z,10.27
2023-11-23T20:02:47.421Z,9.07
2023-11-23T20:05:20.762Z,7.60
2023-11-23T20:07:54.765Z,8.85
2023-11-23T20:10:27.846Z,8.95
2023-11-23T20:13:00.900Z,9.90
2023-11-23T20:15:34.244Z,9.43
2023-11-23T20:18:08.930Z,19.70
2023-11-23T20:20:42.296Z,9.93
2023-11-23T20:23:15.360Z,7.97
2023-11-23T20:25:48.564Z,13.18
2023-11-23T20:28:22.283Z,6.68
2023-11-23T20:33:29.875Z,12.00
2023-11-23T20:36:03.306Z,9.55
2023-11-23T20:38:43.638Z,10.20
2023-11-23T20:41:17.962Z,6.65
2023-11-23T20:43:52.084Z,7.97
2023-11-23T20:46:25.461Z,8.85
2023-11-23T20:49:01.978Z,8.80
2023-11-23T20:51:37.118Z,7.47
2023-11-23T20:54:10.214Z,10.35
2023-11-23T20:56:44.621Z,8.95
2023-11-23T20:59:18.325Z,7.97
2023-11-23T21:01:52.962Z,8.15
2023-11-23T21:04:31.080Z,12.50
2023-11-23T21:07:08.655Z,5.30
2023-11-23T21:09:42.452Z,4.05
2023-11-23T21:15:01.934Z,5.90
2023-11-23T21:17:53.800Z,4.28
2023-11-23T21:20:29.242Z,6.32
2023-11-23T21:23:02.734Z,10.60
2023-11-23T21:25:38.137Z,6.28
2023-11-23T21:28:11.806Z,6.00
2023-11-23T21:30:45.043Z,6.68
2023-11-23T21:33:19.075Z,7.97
2023-11-23T21:35:53.663Z,8.30
2023-11-23T21:38:26.741Z,5.55
2023-11-23T21:40:59.790Z,5.45
2023-11-23T21:43:32.939Z,9.25
2023-11-23T21:46:06.056Z,6.80
2023-11-23T21:48:39.162Z,9.98
2023-11-23T21:51:20.024Z,9.38
2023-11-23T21:53:53.191Z,5.95
2023-11-23T21:56:26.421Z,5.72
2023-11-23T21:58:59.550Z,7.25
2023-11-23T22:01:34.880Z,6.13
2023-11-23T22:04:08.328Z,9.45
2023-11-23T22:06:42.803Z,6.78
2023-11-23T22:09:15.889Z,5.53
2023-11-23T22:11:51.535Z,7.72
2023-11-23T22:14:25.118Z,8.70
2023-11-23T22:16:59.642Z,5.57
2023-11-23T22:19:33.295Z,9.68
2023-11-23T22:22:10.191Z,6.93
2023-11-23T22:24:44.352Z,5.68
2023-11-23T22:27:18.122Z,7.43
2023-11-23T22:29:51.615Z,4.90
2023-11-23T22:32:28.280Z,6.35
2023-11-23T22:35:01.936Z,6.05
2023-11-23T22:37:37.128Z,5.93
2023-11-23T22:40:11.431Z,7.20
2023-11-23T22:42:45.063Z,6.43
2023-11-23T22:45:18.959Z,11.00
2023-11-23T22:47:52.115Z,3.90
2023-11-23T22:50:25.235Z,10.65
2023-11-23T22:52:59.660Z,5.60
2023-11-23T22:55:32.919Z,10.70
2023-11-23T22:58:05.987Z,6.47
2023-11-23T23:00:39.566Z,4.68
2023-11-23T23:03:13.453Z,6.88
2023-11-23T23:10:56.697Z,12.95
2023-11-23T23:13:29.756Z,5.63
2023-11-23T23:16:02.893Z,6.70
2023-11-23T23:18:36.433Z,5.45
2023-11-23T23:21:09.542Z,4.68
2023-11-23T23:23:44.117Z,3.13
2023-11-23T23:26:17.232Z,4.53
2023-11-23T23:28:50.795Z,6.10
2023-11-23T23:31:23.927Z,4.45
2023-11-23T23:33:57.250Z,5.10
2023-11-23T23:36:30.398Z,7.50
2023-11-23T23:39:05.005Z,5.47
2023-11-23T23:41:38.317Z,6.93
2023-11-23T23:44:11.381Z,3.63
2023-11-23T23:46:44.480Z,3.20
2023-11-23T23:49:18.481Z,4.45
2023-11-23T23:51:52.408Z,5.78
2023-11-23T23:54:26.856Z,6.60
2023-11-23T23:57:00.021Z,3.40
2023-11-23T23:59:33.230Z,2.85
